sensor_id;sensor_type;location;lat;lon;timestamp;temperature;humidity
51996;DHT22;38010;53.264;6.592;2023-05-16T00:01:49;16.70;99.90
51996;DHT22;38010;53.264;6.592;2023-05-16T00:04:15;16.70;99.90
51996;DHT22;38010;53.264;6.592;2023-05-16T00:06:42;16.70;99.90
51996;DHT22;38010;53.264;6.592;2023-05-16T00:09:07;16.70;99.90
51996;DHT22;38010;53.264;6.592;2023-05-16T00:11:33;16.70;99.90
51996;DHT22;38010;53.264;6.592;2023-05-16T00:13:59;16.70;99.90
51996;DHT22;38010;53.264;6.592;2023-05-16T00:16:26;16.70;99.90
51996;DHT22;38010;53.264;6.592;2023-05-16T00:18:55;16.60;99.90
51996;DHT22;38010;53.264;6.592;2023-05-16T00:21:22;16.60;99.90
51996;DHT22;38010;53.264;6.592;2023-05-16T00:23:49;16.70;99.90
51996;DHT22;38010;53.264;6.592;2023-05-16T00:26:16;16.70;99.90
51996;DHT22;38010;53.264;6.592;2023-05-16T00:28:42;16.70;99.90
51996;DHT22;38010;53.264;6.592;2023-05-16T00:31:07;16.60;99.90
51996;DHT22;38010;53.264;6.592;2023-05-16T00:33:33;16.60;99.90
51996;DHT22;38010;53.264;6.592;2023-05-16T00:35:59;16.60;99.90
51996;DHT22;38010;53.264;6.592;2023-05-16T00:38:25;16.60;99.90
51996;DHT22;38010;53.264;6.592;2023-05-16T00:40:50;16.60;99.90
51996;DHT22;38010;53.264;6.592;2023-05-16T00:43:16;16.60;99.90
51996;DHT22;38010;53.264;6.592;2023-05-16T00:45:42;16.60;99.90
51996;DHT22;38010;53.264;6.592;2023-05-16T00:48:09;16.60;99.90
51996;DHT22;38010;53.264;6.592;2023-05-16T00:50:36;16.50;99.90
51996;DHT22;38010;53.264;6.592;2023-05-16T00:53:02;16.50;99.90
51996;DHT22;38010;53.264;6.592;2023-05-16T00:55:28;16.50;99.90
51996;DHT22;38010;53.264;6.592;2023-05-16T00:57:55;16.50;99.90
51996;DHT22;38010;53.264;6.592;2023-05-16T01:00:22;16.50;99.90
51996;DHT22;38010;53.264;6.592;2023-05-16T01:02:48;16.40;99.90
51996;DHT22;38010;53.264;6.592;2023-05-16T01:05:18;16.40;99.90
51996;DHT22;38010;53.264;6.592;2023-05-16T01:07:44;16.40;99.90
51996;DHT22;38010;53.264;6.592;2023-05-16T01:10:10;16.40;99.90
51996;DHT22;38010;53.264;6.592;2023-05-16T01:15:28;16.40;99.90
51996;DHT22;38010;53.264;6.592;2023-05-16T01:18:28;16.40;99.90
51996;DHT22;38010;53.264;6.592;2023-05-16T01:20:58;16.40;99.90
51996;DHT22;38010;53.264;6.592;2023-05-16T01:24:02;16.30;99.90
51996;DHT22;38010;53.264;6.592;2023-05-16T01:26:29;16.30;99.90
51996;DHT22;38010;53.264;6.592;2023-05-16T01:28:56;16.30;99.90
51996;DHT22;38010;53.264;6.592;2023-05-16T01:31:23;16.30;99.90
51996;DHT22;38010;53.264;6.592;2023-05-16T01:33:49;16.30;99.90
51996;DHT22;38010;53.264;6.592;2023-05-16T01:36:24;16.30;99.90
51996;DHT22;38010;53.264;6.592;2023-05-16T01:39:19;16.30;99.90
51996;DHT22;38010;53.264;6.592;2023-05-16T01:44:21;16.30;99.90
51996;DHT22;38010;53.264;6.592;2023-05-16T01:46:52;16.30;99.90
51996;DHT22;38010;53.264;6.592;2023-05-16T01:49:24;16.30;99.90
51996;DHT22;38010;53.264;6.592;2023-05-16T01:51:55;16.30;99.90
51996;DHT22;38010;53.264;6.592;2023-05-16T01:54:24;16.30;99.90
51996;DHT22;38010;53.264;6.592;2023-05-16T01:56:52;16.10;99.90
51996;DHT22;38010;53.264;6.592;2023-05-16T01:59:23;16.20;99.90
51996;DHT22;38010;53.264;6.592;2023-05-16T02:01:52;16.30;99.90
51996;DHT22;38010;53.264;6.592;2023-05-16T02:04:18;16.20;99.90
51996;DHT22;38010;53.264;6.592;2023-05-16T02:06:44;16.20;99.90
51996;DHT22;38010;53.264;6.592;2023-05-16T02:09:10;16.20;99.90
51996;DHT22;38010;53.264;6.592;2023-05-16T02:11:35;16.20;99.90
51996;DHT22;38010;53.264;6.592;2023-05-16T02:14:01;16.20;99.90
51996;DHT22;38010;53.264;6.592;2023-05-16T02:16:29;16.20;99.90
51996;DHT22;38010;53.264;6.592;2023-05-16T02:18:55;16.20;99.90
51996;DHT22;38010;53.264;6.592;2023-05-16T02:21:21;16.20;99.90
51996;DHT22;38010;53.264;6.592;2023-05-16T02:23:47;16.10;99.90
51996;DHT22;38010;53.264;6.592;2023-05-16T02:26:13;16.20;99.90
51996;DHT22;38010;53.264;6.592;2023-05-16T02:28:39;16.10;99.90
51996;DHT22;38010;53.264;6.592;2023-05-16T02:31:05;16.10;99.90
51996;DHT22;38010;53.264;6.592;2023-05-16T02:33:31;16.10;99.90
51996;DHT22;38010;53.264;6.592;2023-05-16T02:35:56;16.10;99.90
51996;DHT22;38010;53.264;6.592;2023-05-16T02:38:22;16.10;99.90
51996;DHT22;38010;53.264;6.592;2023-05-16T02:40:48;16.10;99.90
51996;DHT22;38010;53.264;6.592;2023-05-16T02:43:14;16.10;99.90
51996;DHT22;38010;53.264;6.592;2023-05-16T02:45:40;16.10;99.90
51996;DHT22;38010;53.264;6.592;2023-05-16T02:48:06;16.10;99.90
51996;DHT22;38010;53.264;6.592;2023-05-16T02:50:32;16.10;99.90
51996;DHT22;38010;53.264;6.592;2023-05-16T02:52:59;16.10;99.90
51996;DHT22;38010;53.264;6.592;2023-05-16T02:55:27;16.00;99.90
51996;DHT22;38010;53.264;6.592;2023-05-16T02:57:53;16.00;99.90
51996;DHT22;38010;53.264;6.592;2023-05-16T03:00:19;16.00;99.90
51996;DHT22;38010;53.264;6.592;2023-05-16T03:02:45;16.00;99.90
51996;DHT22;38010;53.264;6.592;2023-05-16T03:05:11;16.00;99.90
51996;DHT22;38010;53.264;6.592;2023-05-16T03:07:37;16.00;99.90
51996;DHT22;38010;53.264;6.592;2023-05-16T03:10:03;16.00;99.90
51996;DHT22;38010;53.264;6.592;2023-05-16T03:12:29;16.00;99.90
51996;DHT22;38010;53.264;6.592;2023-05-16T03:14:55;16.00;99.90
51996;DHT22;38010;53.264;6.592;2023-05-16T03:17:21;16.00;99.90
51996;DHT22;38010;53.264;6.592;2023-05-16T03:19:47;15.90;99.90
51996;DHT22;38010;53.264;6.592;2023-05-16T03:22:12;15.90;99.90
51996;DHT22;38010;53.264;6.592;2023-05-16T03:24:38;15.90;99.90
51996;DHT22;38010;53.264;6.592;2023-05-16T03:27:04;15.90;99.90
51996;DHT22;38010;53.264;6.592;2023-05-16T03:29:30;15.90;99.90
51996;DHT22;38010;53.264;6.592;2023-05-16T03:31:56;15.90;99.90
51996;DHT22;38010;53.264;6.592;2023-05-16T03:34:22;15.90;99.90
51996;DHT22;38010;53.264;6.592;2023-05-16T03:36:48;15.90;99.90
51996;DHT22;38010;53.264;6.592;2023-05-16T03:39:15;15.90;99.90
51996;DHT22;38010;53.264;6.592;2023-05-16T03:41:41;15.90;99.90
51996;DHT22;38010;53.264;6.592;2023-05-16T03:44:07;15.90;99.90
51996;DHT22;38010;53.264;6.592;2023-05-16T03:46:34;15.90;99.90
51996;DHT22;38010;53.264;6.592;2023-05-16T03:49:00;15.80;99.90
51996;DHT22;38010;53.264;6.592;2023-05-16T03:51:25;15.80;99.90
51996;DHT22;38010;53.264;6.592;2023-05-16T03:53:53;15.80;99.90
51996;DHT22;38010;53.264;6.592;2023-05-16T03:56:19;15.80;99.90
51996;DHT22;38010;53.264;6.592;2023-05-16T03:58:46;15.80;99.90
51996;DHT22;38010;53.264;6.592;2023-05-16T04:01:12;15.80;99.90
51996;DHT22;38010;53.264;6.592;2023-05-16T04:03:38;15.80;99.90
51996;DHT22;38010;53.264;6.592;2023-05-16T04:06:05;15.80;99.90
51996;DHT22;38010;53.264;6.592;2023-05-16T04:08:31;15.80;99.90
51996;DHT22;38010;53.264;6.592;2023-05-16T04:10:56;15.80;99.90
51996;DHT22;38010;53.264;6.592;2023-05-16T04:13:22;15.80;99.90
51996;DHT22;38010;53.264;6.592;2023-05-16T04:15:48;15.80;99.90
51996;DHT22;38010;53.264;6.592;2023-05-16T04:18:13;15.80;99.90
51996;DHT22;38010;53.264;6.592;2023-05-16T04:20:41;15.70;99.90
51996;DHT22;38010;53.264;6.592;2023-05-16T04:23:08;15.70;99.90
51996;DHT22;38010;53.264;6.592;2023-05-16T04:25:36;15.70;99.90
51996;DHT22;38010;53.264;6.592;2023-05-16T04:28:02;15.70;99.90
51996;DHT22;38010;53.264;6.592;2023-05-16T04:30:27;15.70;99.90
51996;DHT22;38010;53.264;6.592;2023-05-16T04:32:53;15.70;99.90
51996;DHT22;38010;53.264;6.592;2023-05-16T04:35:19;15.70;99.90
51996;DHT22;38010;53.264;6.592;2023-05-16T04:37:46;15.70;99.90
51996;DHT22;38010;53.264;6.592;2023-05-16T04:40:12;15.70;99.90
51996;DHT22;38010;53.264;6.592;2023-05-16T04:42:38;15.70;99.90
51996;DHT22;38010;53.264;6.592;2023-05-16T04:45:05;15.70;99.90
51996;DHT22;38010;53.264;6.592;2023-05-16T04:47:31;15.70;99.90
51996;DHT22;38010;53.264;6.592;2023-05-16T04:49:57;15.70;99.90
51996;DHT22;38010;53.264;6.592;2023-05-16T04:52:23;15.70;99.90
51996;DHT22;38010;53.264;6.592;2023-05-16T04:54:51;15.70;99.90
51996;DHT22;38010;53.264;6.592;2023-05-16T04:57:17;15.70;99.90
51996;DHT22;38010;53.264;6.592;2023-05-16T04:59:43;15.70;99.90
51996;DHT22;38010;53.264;6.592;2023-05-16T05:02:09;15.70;99.90
51996;DHT22;38010;53.264;6.592;2023-05-16T05:04:35;15.70;99.90
51996;DHT22;38010;53.264;6.592;2023-05-16T05:07:02;15.70;99.90
51996;DHT22;38010;53.264;6.592;2023-05-16T05:09:28;15.80;99.90
51996;DHT22;38010;53.264;6.592;2023-05-16T05:11:53;15.80;99.90
51996;DHT22;38010;53.264;6.592;2023-05-16T05:14:19;15.70;99.90
51996;DHT22;38010;53.264;6.592;2023-05-16T05:16:45;15.70;99.90
51996;DHT22;38010;53.264;6.592;2023-05-16T05:19:11;15.70;99.90
51996;DHT22;38010;53.264;6.592;2023-05-16T05:21:37;15.70;99.90
51996;DHT22;38010;53.264;6.592;2023-05-16T05:24:02;15.70;99.90
51996;DHT22;38010;53.264;6.592;2023-05-16T05:26:28;15.80;99.90
51996;DHT22;38010;53.264;6.592;2023-05-16T05:28:54;15.80;99.90
51996;DHT22;38010;53.264;6.592;2023-05-16T05:31:20;15.80;99.90
51996;DHT22;38010;53.264;6.592;2023-05-16T05:33:46;15.80;99.90
51996;DHT22;38010;53.264;6.592;2023-05-16T05:36:11;15.80;99.90
51996;DHT22;38010;53.264;6.592;2023-05-16T05:38:37;15.90;99.90
51996;DHT22;38010;53.264;6.592;2023-05-16T05:41:04;15.90;99.90
51996;DHT22;38010;53.264;6.592;2023-05-16T05:43:30;15.90;99.90
51996;DHT22;38010;53.264;6.592;2023-05-16T05:45:55;16.00;99.90
51996;DHT22;38010;53.264;6.592;2023-05-16T05:48:21;16.00;99.90
51996;DHT22;38010;53.264;6.592;2023-05-16T05:50:47;16.00;99.90
51996;DHT22;38010;53.264;6.592;2023-05-16T05:53:13;16.00;99.90
51996;DHT22;38010;53.264;6.592;2023-05-16T05:55:39;16.00;99.90
51996;DHT22;38010;53.264;6.592;2023-05-16T05:58:08;16.00;99.90
51996;DHT22;38010;53.264;6.592;2023-05-16T06:00:34;16.00;99.90
51996;DHT22;38010;53.264;6.592;2023-05-16T06:03:00;16.10;99.90
51996;DHT22;38010;53.264;6.592;2023-05-16T06:05:25;16.00;99.90
51996;DHT22;38010;53.264;6.592;2023-05-16T06:07:51;16.00;99.90
51996;DHT22;38010;53.264;6.592;2023-05-16T06:10:17;16.10;99.90
51996;DHT22;38010;53.264;6.592;2023-05-16T06:12:42;16.10;99.90
51996;DHT22;38010;53.264;6.592;2023-05-16T06:15:09;16.10;99.90
51996;DHT22;38010;53.264;6.592;2023-05-16T06:17:36;16.10;99.90
51996;DHT22;38010;53.264;6.592;2023-05-16T06:20:02;16.10;99.90
51996;DHT22;38010;53.264;6.592;2023-05-16T06:22:27;16.10;99.90
51996;DHT22;38010;53.264;6.592;2023-05-16T06:24:53;16.10;99.90
51996;DHT22;38010;53.264;6.592;2023-05-16T06:27:19;16.20;99.90
51996;DHT22;38010;53.264;6.592;2023-05-16T06:29:44;16.10;99.90
51996;DHT22;38010;53.264;6.592;2023-05-16T06:32:10;16.10;99.90
51996;DHT22;38010;53.264;6.592;2023-05-16T06:34:36;16.10;99.90
51996;DHT22;38010;53.264;6.592;2023-05-16T06:37:02;16.20;99.90
51996;DHT22;38010;53.264;6.592;2023-05-16T06:39:28;16.20;99.90
51996;DHT22;38010;53.264;6.592;2023-05-16T06:41:53;16.20;99.90
51996;DHT22;38010;53.264;6.592;2023-05-16T06:44:20;16.20;99.90
51996;DHT22;38010;53.264;6.592;2023-05-16T06:46:46;16.20;99.90
51996;DHT22;38010;53.264;6.592;2023-05-16T06:49:11;16.20;99.90
51996;DHT22;38010;53.264;6.592;2023-05-16T06:51:37;16.20;99.90
51996;DHT22;38010;53.264;6.592;2023-05-16T06:54:03;16.20;99.90
51996;DHT22;38010;53.264;6.592;2023-05-16T06:56:29;16.20;99.90
51996;DHT22;38010;53.264;6.592;2023-05-16T06:58:55;16.20;99.90
51996;DHT22;38010;53.264;6.592;2023-05-16T07:01:21;16.20;99.90
51996;DHT22;38010;53.264;6.592;2023-05-16T07:03:47;16.20;99.90
51996;DHT22;38010;53.264;6.592;2023-05-16T07:06:12;16.20;99.90
51996;DHT22;38010;53.264;6.592;2023-05-16T07:08:38;16.20;99.90
51996;DHT22;38010;53.264;6.592;2023-05-16T07:11:04;16.20;99.90
51996;DHT22;38010;53.264;6.592;2023-05-16T07:13:30;16.30;99.90
51996;DHT22;38010;53.264;6.592;2023-05-16T07:15:55;16.30;99.90
51996;DHT22;38010;53.264;6.592;2023-05-16T07:18:21;16.30;99.90
51996;DHT22;38010;53.264;6.592;2023-05-16T07:20:47;16.30;99.90
51996;DHT22;38010;53.264;6.592;2023-05-16T07:23:12;16.30;99.90
51996;DHT22;38010;53.264;6.592;2023-05-16T07:25:38;16.30;99.90
51996;DHT22;38010;53.264;6.592;2023-05-16T07:28:04;16.30;99.90
51996;DHT22;38010;53.264;6.592;2023-05-16T07:30:30;16.20;99.90
51996;DHT22;38010;53.264;6.592;2023-05-16T07:32:56;16.30;99.90
51996;DHT22;38010;53.264;6.592;2023-05-16T07:35:22;16.20;99.90
51996;DHT22;38010;53.264;6.592;2023-05-16T07:37:48;16.30;99.90
51996;DHT22;38010;53.264;6.592;2023-05-16T07:40:13;16.30;99.90
51996;DHT22;38010;53.264;6.592;2023-05-16T07:42:39;16.30;99.90
51996;DHT22;38010;53.264;6.592;2023-05-16T07:45:05;16.30;99.90
51996;DHT22;38010;53.264;6.592;2023-05-16T07:47:32;16.30;99.90
51996;DHT22;38010;53.264;6.592;2023-05-16T07:49:57;16.30;99.90
51996;DHT22;38010;53.264;6.592;2023-05-16T07:52:23;16.30;99.90
51996;DHT22;38010;53.264;6.592;2023-05-16T07:54:49;16.30;99.90
51996;DHT22;38010;53.264;6.592;2023-05-16T07:57:15;16.30;99.90
51996;DHT22;38010;53.264;6.592;2023-05-16T07:59:41;16.30;99.90
51996;DHT22;38010;53.264;6.592;2023-05-16T08:02:08;16.30;99.90
51996;DHT22;38010;53.264;6.592;2023-05-16T08:04:33;16.30;99.90
51996;DHT22;38010;53.264;6.592;2023-05-16T08:06:59;16.30;99.90
51996;DHT22;38010;53.264;6.592;2023-05-16T08:09:25;16.30;99.90
51996;DHT22;38010;53.264;6.592;2023-05-16T08:11:50;16.30;99.90
51996;DHT22;38010;53.264;6.592;2023-05-16T08:14:16;16.30;99.90
51996;DHT22;38010;53.264;6.592;2023-05-16T08:16:43;16.40;99.90
51996;DHT22;38010;53.264;6.592;2023-05-16T08:19:08;16.30;99.90
51996;DHT22;38010;53.264;6.592;2023-05-16T08:21:34;16.30;99.90
51996;DHT22;38010;53.264;6.592;2023-05-16T08:24:00;16.30;99.90
51996;DHT22;38010;53.264;6.592;2023-05-16T08:26:26;16.30;99.90
51996;DHT22;38010;53.264;6.592;2023-05-16T08:28:52;16.30;99.90
51996;DHT22;38010;53.264;6.592;2023-05-16T08:31:17;16.30;99.90
51996;DHT22;38010;53.264;6.592;2023-05-16T08:33:43;16.30;99.90
51996;DHT22;38010;53.264;6.592;2023-05-16T08:36:09;16.30;99.90
51996;DHT22;38010;53.264;6.592;2023-05-16T08:38:35;16.30;99.90
51996;DHT22;38010;53.264;6.592;2023-05-16T08:41:01;16.30;99.90
51996;DHT22;38010;53.264;6.592;2023-05-16T08:43:28;16.30;99.90
51996;DHT22;38010;53.264;6.592;2023-05-16T08:45:54;16.30;99.90
51996;DHT22;38010;53.264;6.592;2023-05-16T08:48:22;16.30;99.90
51996;DHT22;38010;53.264;6.592;2023-05-16T08:50:48;16.40;99.90
51996;DHT22;38010;53.264;6.592;2023-05-16T08:53:18;16.30;99.90
51996;DHT22;38010;53.264;6.592;2023-05-16T08:55:47;16.30;99.90
51996;DHT22;38010;53.264;6.592;2023-05-16T08:58:14;16.40;99.90
51996;DHT22;38010;53.264;6.592;2023-05-16T09:00:40;16.40;99.90
51996;DHT22;38010;53.264;6.592;2023-05-16T09:03:06;16.30;99.90
51996;DHT22;38010;53.264;6.592;2023-05-16T09:05:32;16.40;99.90
51996;DHT22;38010;53.264;6.592;2023-05-16T09:07:58;16.40;99.90
51996;DHT22;38010;53.264;6.592;2023-05-16T09:10:24;16.40;99.90
51996;DHT22;38010;53.264;6.592;2023-05-16T09:12:51;16.30;99.90
51996;DHT22;38010;53.264;6.592;2023-05-16T09:15:17;16.40;99.90
51996;DHT22;38010;53.264;6.592;2023-05-16T09:17:45;16.40;99.90
51996;DHT22;38010;53.264;6.592;2023-05-16T09:20:18;16.40;99.90
51996;DHT22;38010;53.264;6.592;2023-05-16T09:22:56;16.40;99.90
51996;DHT22;38010;53.264;6.592;2023-05-16T09:25:25;16.40;99.90
51996;DHT22;38010;53.264;6.592;2023-05-16T09:27:58;16.40;99.90
51996;DHT22;38010;53.264;6.592;2023-05-16T09:30:33;16.40;99.90
51996;DHT22;38010;53.264;6.592;2023-05-16T09:32:59;16.40;99.90
51996;DHT22;38010;53.264;6.592;2023-05-16T09:35:25;16.40;99.90
51996;DHT22;38010;53.264;6.592;2023-05-16T09:37:51;16.40;99.90
51996;DHT22;38010;53.264;6.592;2023-05-16T09:40:26;16.40;99.90
51996;DHT22;38010;53.264;6.592;2023-05-16T09:45:26;16.40;99.90
51996;DHT22;38010;53.264;6.592;2023-05-16T09:47:52;16.30;99.90
51996;DHT22;38010;53.264;6.592;2023-05-16T09:50:18;16.40;99.90
51996;DHT22;38010;53.264;6.592;2023-05-16T09:52:44;16.40;99.90
51996;DHT22;38010;53.264;6.592;2023-05-16T09:55:09;16.40;99.90
51996;DHT22;38010;53.264;6.592;2023-05-16T09:57:38;16.40;99.90
51996;DHT22;38010;53.264;6.592;2023-05-16T10:00:06;16.40;99.90
51996;DHT22;38010;53.264;6.592;2023-05-16T10:02:36;16.40;99.90
51996;DHT22;38010;53.264;6.592;2023-05-16T10:05:02;16.40;99.90
51996;DHT22;38010;53.264;6.592;2023-05-16T10:07:30;16.40;99.90
51996;DHT22;38010;53.264;6.592;2023-05-16T10:09:58;16.40;99.90
51996;DHT22;38010;53.264;6.592;2023-05-16T10:12:29;16.40;99.90
51996;DHT22;38010;53.264;6.592;2023-05-16T10:14:56;16.40;99.90
51996;DHT22;38010;53.264;6.592;2023-05-16T10:17:24;16.40;99.90
51996;DHT22;38010;53.264;6.592;2023-05-16T10:19:53;16.40;99.90
51996;DHT22;38010;53.264;6.592;2023-05-16T10:22:19;16.40;99.90
51996;DHT22;38010;53.264;6.592;2023-05-16T10:24:57;16.40;99.90
51996;DHT22;38010;53.264;6.592;2023-05-16T10:27:25;16.40;99.90
51996;DHT22;38010;53.264;6.592;2023-05-16T10:29:52;16.40;99.90
51996;DHT22;38010;53.264;6.592;2023-05-16T10:32:18;16.40;99.90
51996;DHT22;38010;53.264;6.592;2023-05-16T10:34:45;16.40;99.90
51996;DHT22;38010;53.264;6.592;2023-05-16T10:37:11;16.40;99.90
51996;DHT22;38010;53.264;6.592;2023-05-16T10:39:37;16.40;99.90
51996;DHT22;38010;53.264;6.592;2023-05-16T10:42:05;16.40;99.90
51996;DHT22;38010;53.264;6.592;2023-05-16T10:44:32;16.40;99.90
51996;DHT22;38010;53.264;6.592;2023-05-16T10:46:59;16.40;99.90
51996;DHT22;38010;53.264;6.592;2023-05-16T10:49:26;16.40;99.90
51996;DHT22;38010;53.264;6.592;2023-05-16T10:54:40;16.40;99.90
51996;DHT22;38010;53.264;6.592;2023-05-16T10:57:14;16.40;99.90
51996;DHT22;38010;53.264;6.592;2023-05-16T10:59:43;16.50;99.90
51996;DHT22;38010;53.264;6.592;2023-05-16T11:04:55;16.50;99.90
51996;DHT22;38010;53.264;6.592;2023-05-16T11:07:23;16.50;99.90
51996;DHT22;38010;53.264;6.592;2023-05-16T11:10:09;16.50;99.90
51996;DHT22;38010;53.264;6.592;2023-05-16T11:12:44;16.50;99.90
51996;DHT22;38010;53.264;6.592;2023-05-16T11:15:27;16.50;99.90
51996;DHT22;38010;53.264;6.592;2023-05-16T11:18:15;16.50;99.90
51996;DHT22;38010;53.264;6.592;2023-05-16T11:20:42;16.50;99.90
51996;DHT22;38010;53.264;6.592;2023-05-16T11:23:21;16.50;99.90
51996;DHT22;38010;53.264;6.592;2023-05-16T11:25:53;16.50;99.90
51996;DHT22;38010;53.264;6.592;2023-05-16T11:28:20;16.50;99.90
51996;DHT22;38010;53.264;6.592;2023-05-16T11:30:49;16.50;99.90
51996;DHT22;38010;53.264;6.592;2023-05-16T11:33:16;16.60;99.90
51996;DHT22;38010;53.264;6.592;2023-05-16T11:35:42;16.50;99.90
51996;DHT22;38010;53.264;6.592;2023-05-16T11:38:12;16.60;99.90
51996;DHT22;38010;53.264;6.592;2023-05-16T11:40:42;16.60;99.90
51996;DHT22;38010;53.264;6.592;2023-05-16T11:43:08;16.60;99.90
51996;DHT22;38010;53.264;6.592;2023-05-16T11:45:34;16.60;99.90
51996;DHT22;38010;53.264;6.592;2023-05-16T11:48:03;16.60;99.90
51996;DHT22;38010;53.264;6.592;2023-05-16T11:50:29;16.60;99.90
51996;DHT22;38010;53.264;6.592;2023-05-16T11:52:55;16.60;99.90
51996;DHT22;38010;53.264;6.592;2023-05-16T11:55:24;16.60;99.90
51996;DHT22;38010;53.264;6.592;2023-05-16T11:57:53;16.60;99.90
51996;DHT22;38010;53.264;6.592;2023-05-16T12:00:21;16.60;99.90
51996;DHT22;38010;53.264;6.592;2023-05-16T12:02:48;16.60;99.90
51996;DHT22;38010;53.264;6.592;2023-05-16T12:05:17;16.60;99.90
51996;DHT22;38010;53.264;6.592;2023-05-16T12:07:45;16.60;99.90
51996;DHT22;38010;53.264;6.592;2023-05-16T12:10:13;16.60;99.90
51996;DHT22;38010;53.264;6.592;2023-05-16T12:12:41;16.60;99.90
51996;DHT22;38010;53.264;6.592;2023-05-16T12:15:08;16.60;99.90
51996;DHT22;38010;53.264;6.592;2023-05-16T12:17:35;16.60;99.90
51996;DHT22;38010;53.264;6.592;2023-05-16T12:20:02;16.60;99.90
51996;DHT22;38010;53.264;6.592;2023-05-16T12:22:32;16.60;99.90
51996;DHT22;38010;53.264;6.592;2023-05-16T12:24:59;16.60;99.90
51996;DHT22;38010;53.264;6.592;2023-05-16T12:27:25;16.60;99.90
51996;DHT22;38010;53.264;6.592;2023-05-16T12:29:52;16.60;99.90
51996;DHT22;38010;53.264;6.592;2023-05-16T12:32:20;16.60;99.90
51996;DHT22;38010;53.264;6.592;2023-05-16T12:34:49;16.60;99.90
51996;DHT22;38010;53.264;6.592;2023-05-16T12:37:16;16.60;99.90
51996;DHT22;38010;53.264;6.592;2023-05-16T12:39:42;16.50;99.90
51996;DHT22;38010;53.264;6.592;2023-05-16T12:42:12;16.50;99.90
51996;DHT22;38010;53.264;6.592;2023-05-16T12:44:38;16.60;99.90
51996;DHT22;38010;53.264;6.592;2023-05-16T12:47:11;16.60;99.90
51996;DHT22;38010;53.264;6.592;2023-05-16T12:49:44;16.60;99.90
51996;DHT22;38010;53.264;6.592;2023-05-16T12:52:17;16.70;99.90
51996;DHT22;38010;53.264;6.592;2023-05-16T12:54:44;16.70;99.90
51996;DHT22;38010;53.264;6.592;2023-05-16T12:57:10;16.80;99.90
51996;DHT22;38010;53.264;6.592;2023-05-16T12:59:36;16.80;99.90
51996;DHT22;38010;53.264;6.592;2023-05-16T13:02:02;16.90;99.90
51996;DHT22;38010;53.264;6.592;2023-05-16T13:04:28;16.90;99.90
51996;DHT22;38010;53.264;6.592;2023-05-16T13:06:54;16.90;99.90
51996;DHT22;38010;53.264;6.592;2023-05-16T13:09:20;16.90;99.90
51996;DHT22;38010;53.264;6.592;2023-05-16T13:11:46;16.90;99.90
51996;DHT22;38010;53.264;6.592;2023-05-16T13:14:12;16.90;99.90
51996;DHT22;38010;53.264;6.592;2023-05-16T13:16:38;16.80;99.90
51996;DHT22;38010;53.264;6.592;2023-05-16T13:19:04;16.80;99.90
51996;DHT22;38010;53.264;6.592;2023-05-16T13:21:30;16.80;99.90
51996;DHT22;38010;53.264;6.592;2023-05-16T13:23:57;16.80;99.90
51996;DHT22;38010;53.264;6.592;2023-05-16T13:26:23;16.80;99.90
51996;DHT22;38010;53.264;6.592;2023-05-16T13:28:49;16.80;99.90
51996;DHT22;38010;53.264;6.592;2023-05-16T13:31:20;16.80;99.90
51996;DHT22;38010;53.264;6.592;2023-05-16T13:33:47;16.90;99.90
51996;DHT22;38010;53.264;6.592;2023-05-16T13:36:13;17.00;99.90
51996;DHT22;38010;53.264;6.592;2023-05-16T13:38:39;17.10;99.90
51996;DHT22;38010;53.264;6.592;2023-05-16T13:41:05;17.20;99.90
51996;DHT22;38010;53.264;6.592;2023-05-16T13:50:49;17.70;99.90
51996;DHT22;38010;53.264;6.592;2023-05-16T13:53:17;17.90;99.90
51996;DHT22;38010;53.264;6.592;2023-05-16T13:55:43;18.10;99.90
51996;DHT22;38010;53.264;6.592;2023-05-16T13:58:09;18.40;99.90
51996;DHT22;38010;53.264;6.592;2023-05-16T14:00:34;19.20;99.90
51996;DHT22;38010;53.264;6.592;2023-05-16T14:03:00;20.10;99.90
51996;DHT22;38010;53.264;6.592;2023-05-16T14:05:26;21.00;99.90
51996;DHT22;38010;53.264;6.592;2023-05-16T14:07:52;21.20;99.90
51996;DHT22;38010;53.264;6.592;2023-05-16T14:10:17;21.50;99.90
51996;DHT22;38010;53.264;6.592;2023-05-16T14:12:43;21.90;99.80
51996;DHT22;38010;53.264;6.592;2023-05-16T14:15:09;21.90;99.50
51996;DHT22;38010;53.264;6.592;2023-05-16T14:17:35;22.60;99.00
51996;DHT22;38010;53.264;6.592;2023-05-16T14:20:01;23.00;98.10
51996;DHT22;38010;53.264;6.592;2023-05-16T14:22:26;22.70;97.80
51996;DHT22;38010;53.264;6.592;2023-05-16T14:24:53;22.60;97.80
51996;DHT22;38010;53.264;6.592;2023-05-16T14:27:18;21.90;98.00
51996;DHT22;38010;53.264;6.592;2023-05-16T14:29:44;21.00;98.60
51996;DHT22;38010;53.264;6.592;2023-05-16T14:32:11;20.70;99.20
51996;DHT22;38010;53.264;6.592;2023-05-16T14:34:37;20.20;99.90
51996;DHT22;38010;53.264;6.592;2023-05-16T14:37:03;19.70;99.90
51996;DHT22;38010;53.264;6.592;2023-05-16T14:39:29;19.40;99.90
51996;DHT22;38010;53.264;6.592;2023-05-16T14:41:54;19.10;99.90
51996;DHT22;38010;53.264;6.592;2023-05-16T14:44:21;18.80;99.90
51996;DHT22;38010;53.264;6.592;2023-05-16T14:46:49;18.70;99.90
51996;DHT22;38010;53.264;6.592;2023-05-16T14:49:16;18.70;99.90
51996;DHT22;38010;53.264;6.592;2023-05-16T14:51:42;18.60;99.90
51996;DHT22;38010;53.264;6.592;2023-05-16T14:54:09;18.40;99.90
51996;DHT22;38010;53.264;6.592;2023-05-16T14:56:35;18.30;99.90
51996;DHT22;38010;53.264;6.592;2023-05-16T14:59:01;18.10;99.90
51996;DHT22;38010;53.264;6.592;2023-05-16T15:01:26;18.10;99.90
51996;DHT22;38010;53.264;6.592;2023-05-16T15:03:52;18.00;99.90
51996;DHT22;38010;53.264;6.592;2023-05-16T15:06:18;17.90;99.90
51996;DHT22;38010;53.264;6.592;2023-05-16T15:08:44;17.80;99.90
51996;DHT22;38010;53.264;6.592;2023-05-16T15:11:10;17.70;99.90
51996;DHT22;38010;53.264;6.592;2023-05-16T15:13:35;17.60;99.90
51996;DHT22;38010;53.264;6.592;2023-05-16T15:16:01;17.60;99.90
51996;DHT22;38010;53.264;6.592;2023-05-16T15:18:28;17.60;99.90
51996;DHT22;38010;53.264;6.592;2023-05-16T15:20:53;17.60;99.90
51996;DHT22;38010;53.264;6.592;2023-05-16T15:23:19;17.50;99.90
51996;DHT22;38010;53.264;6.592;2023-05-16T15:25:45;17.50;99.90
51996;DHT22;38010;53.264;6.592;2023-05-16T15:28:11;17.40;99.90
51996;DHT22;38010;53.264;6.592;2023-05-16T15:30:37;17.30;99.90
51996;DHT22;38010;53.264;6.592;2023-05-16T15:33:03;17.30;99.90
51996;DHT22;38010;53.264;6.592;2023-05-16T15:35:29;17.30;99.90
51996;DHT22;38010;53.264;6.592;2023-05-16T15:37:54;17.20;99.90
51996;DHT22;38010;53.264;6.592;2023-05-16T17:15:35;16.90;99.90
51996;DHT22;38010;53.264;6.592;2023-05-16T17:18:02;16.90;99.90
51996;DHT22;38010;53.264;6.592;2023-05-16T17:20:30;16.90;99.90
51996;DHT22;38010;53.264;6.592;2023-05-16T17:22:56;16.90;99.90
51996;DHT22;38010;53.264;6.592;2023-05-16T17:25:22;16.90;99.90